createdAt,value
2018-12-05T00:00:26.132Z,102288.08
2018-12-05T00:02:33.712Z,102285.29
2018-12-05T00:04:41.548Z,102297.14
2018-12-05T00:06:49.251Z,102292.24
2018-12-05T00:08:57.014Z,102297.98
2018-12-05T00:11:04.889Z,102296.95
2018-12-05T00:13:12.621Z,102294.20
2018-12-05T00:15:17.511Z,102297.75
2018-12-05T00:17:24.967Z,102294.56
2018-12-05T00:19:32.517Z,102297.27
2018-12-05T00:21:40.782Z,102298.20
2018-12-05T00:23:48.416Z,102303.22
2018-12-05T00:25:55.890Z,102301.11
2018-12-05T00:28:03.356Z,102304.53
2018-12-05T00:30:08.547Z,102299.64
2018-12-05T00:32:16.745Z,102307.31
2018-12-05T00:34:24.247Z,102305.14
2018-12-05T00:36:29.402Z,102310.52
2018-12-05T00:38:37.650Z,102308.88
2018-12-05T00:40:45.270Z,102304.02
2018-12-05T00:42:52.934Z,102304.46
2018-12-05T00:45:00.461Z,102303.30
2018-12-05T00:47:08.093Z,102307.66
2018-12-05T00:49:15.884Z,102313.00
2018-12-05T00:51:23.410Z,102310.74
2018-12-05T00:53:31.003Z,102307.48
2018-12-05T00:55:38.830Z,102310.88
2018-12-05T00:57:46.669Z,102317.76
2018-12-05T00:59:56.206Z,102321.69
2018-12-05T01:02:21.691Z,102326.05
2018-12-05T01:04:29.103Z,102327.31
2018-12-05T01:06:40.983Z,102293.84
2018-12-05T01:08:45.515Z,102327.68
2018-12-05T01:10:52.927Z,102330.78
2018-12-05T01:12:57.670Z,102332.56
2018-12-05T01:15:05.984Z,102330.04
2018-12-05T01:17:14.741Z,102332.13
2018-12-05T01:19:22.863Z,102332.76
2018-12-05T01:21:44.098Z,102331.06
2018-12-05T01:23:57.704Z,102333.19
2018-12-05T01:26:05.329Z,102336.99
2018-12-05T01:28:13.124Z,102336.02
2018-12-05T01:30:20.597Z,102335.80
2018-12-05T01:32:32.215Z,102335.64
2018-12-05T01:34:40.563Z,102331.92
2018-12-05T01:36:45.028Z,102336.96
2018-12-05T01:38:50.420Z,102337.73
2018-12-05T01:40:59.849Z,102345.55
2018-12-05T01:43:07.328Z,102340.61
2018-12-05T01:45:14.817Z,102350.20
2018-12-05T01:47:24.223Z,102347.34
2018-12-05T01:49:31.814Z,102353.64
2018-12-05T01:51:39.227Z,102356.86
2018-12-05T01:53:46.651Z,102344.95
2018-12-05T01:55:55.215Z,102354.56
2018-12-05T02:00:08.927Z,102343.50
2018-12-05T02:06:26.938Z,102353.29
2018-12-05T02:08:34.335Z,102356.23
2018-12-05T02:12:46.307Z,102363.77
2018-12-05T02:14:53.739Z,102363.44
2018-12-05T02:16:58.275Z,102369.57
2018-12-05T02:19:05.760Z,102363.92
2018-12-05T02:21:13.296Z,102370.63
2018-12-05T02:23:17.912Z,102370.91
2018-12-05T02:25:25.503Z,102365.78
2018-12-05T02:27:30.263Z,102365.03
2018-12-05T02:29:43.599Z,102367.09
2018-12-05T02:31:51.356Z,102363.89
2018-12-05T02:33:56.834Z,102362.39
2018-12-05T02:36:04.279Z,102367.08
2018-12-05T02:38:11.775Z,102366.05
2018-12-05T02:40:19.378Z,102366.02
2018-12-05T02:42:26.903Z,102364.53
2018-12-05T02:44:34.495Z,102365.23
2018-12-05T02:46:42.016Z,102373.53
2018-12-05T02:48:47.496Z,102371.17
2018-12-05T02:50:52.886Z,102338.07
2018-12-05T02:53:01.035Z,102369.45
2018-12-05T02:55:09.879Z,102371.24
2018-12-05T02:57:18.022Z,102368.36
2018-12-05T02:59:25.410Z,102375.27
2018-12-05T03:01:30.333Z,102381.76
2018-12-05T03:03:36.715Z,102382.98
2018-12-05T03:05:41.364Z,102392.55
2018-12-05T03:07:48.882Z,102390.25
2018-12-05T03:09:56.419Z,102388.08
2018-12-05T03:16:10.698Z,102387.45
2018-12-05T03:20:24.373Z,102392.41
2018-12-05T03:22:35.921Z,102395.84
2018-12-05T03:24:43.536Z,102396.01
2018-12-05T03:26:50.973Z,102393.27
2018-12-05T03:28:58.521Z,102399.98
2018-12-05T03:31:10.111Z,102399.33
2018-12-05T03:33:18.441Z,102399.67
2018-12-05T03:35:43.024Z,102410.07
2018-12-05T03:37:50.332Z,102412.61
2018-12-05T03:39:57.846Z,102410.83
2018-12-05T03:42:02.570Z,102412.56
2018-12-05T03:44:10.695Z,102410.81
2018-12-05T03:46:18.272Z,102410.78
2018-12-05T03:48:25.806Z,102414.94
2018-12-05T03:50:33.328Z,102419.61
2018-12-05T03:52:40.796Z,102419.81
2018-12-05T03:54:48.147Z,102422.23
2018-12-05T03:56:55.940Z,102417.05
2018-12-05T03:59:08.316Z,102415.03
2018-12-05T04:01:15.969Z,102420.45
2018-12-05T04:03:23.309Z,102419.58
2018-12-05T04:05:34.689Z,102425.36
2018-12-05T04:07:42.341Z,102419.47
2018-12-05T04:09:49.884Z,102424.81
2018-12-05T04:11:57.300Z,102425.95
2018-12-05T04:14:04.999Z,102427.03
2018-12-05T04:16:12.655Z,102424.81
2018-12-05T04:18:20.387Z,102427.60
2018-12-05T04:22:29.088Z,102425.33
2018-12-05T04:24:36.864Z,102423.67
2018-12-05T04:26:44.273Z,102426.45
2018-12-05T04:28:48.963Z,102430.97
2018-12-05T04:30:56.402Z,102433.16
2018-12-05T04:33:01.084Z,102434.48
2018-12-05T04:35:08.462Z,102437.05
2018-12-05T04:37:16.362Z,102429.55
2018-12-05T04:39:24.664Z,102428.27
2018-12-05T04:41:32.106Z,102427.45
2018-12-05T04:43:36.658Z,102434.64
2018-12-05T04:45:48.196Z,102431.84
2018-12-05T04:47:55.981Z,102435.27
2018-12-05T04:50:00.404Z,102442.67
2018-12-05T04:52:07.871Z,102450.31
2018-12-05T04:54:15.452Z,102455.89
2018-12-05T04:56:22.935Z,102453.87
2018-12-05T04:58:30.604Z,102459.52
2018-12-05T05:00:38.466Z,102459.61
2018-12-05T05:02:46.715Z,102459.03
2018-12-05T05:04:54.267Z,102457.20
2018-12-05T05:07:02.712Z,102455.42
2018-12-05T05:09:07.962Z,102454.48
2018-12-05T05:11:13.033Z,102466.44
2018-12-05T05:13:20.426Z,102462.73
2018-12-05T05:15:25.775Z,102464.86
2018-12-05T05:17:33.931Z,102460.22
2018-12-05T05:19:38.667Z,102462.09
2018-12-05T05:23:52.248Z,102471.06
2018-12-05T05:25:59.660Z,102467.31
2018-12-05T05:28:07.043Z,102479.48
2018-12-05T05:30:14.367Z,102481.37
2018-12-05T05:32:27.090Z,102484.83
2018-12-05T05:34:39.469Z,102491.19
2018-12-05T05:36:48.087Z,102491.61
2018-12-05T05:38:55.540Z,102493.77
2018-12-05T05:41:06.967Z,102489.64
2018-12-05T05:43:14.725Z,102487.41
2018-12-05T05:45:19.917Z,102487.37
2018-12-05T05:47:28.157Z,102498.31
2018-12-05T05:49:35.679Z,102494.72
2018-12-05T05:51:43.475Z,102485.17
2018-12-05T05:53:51.599Z,102484.46
2018-12-05T05:56:03.044Z,102491.25
2018-12-05T05:58:06.431Z,102491.69
2018-12-05T06:00:11.899Z,102486.69
2018-12-05T06:02:17.158Z,102489.06
2018-12-05T06:04:26.601Z,102498.25
2018-12-05T06:06:34.357Z,102494.73
2018-12-05T06:08:45.975Z,102499.11
2018-12-05T06:10:50.448Z,102500.62
2018-12-05T06:12:55.201Z,102501.81
2018-12-05T06:15:00.230Z,102500.40
2018-12-05T06:17:07.597Z,102500.34
2018-12-05T06:19:19.108Z,102507.67
2018-12-05T06:21:26.495Z,102513.46
2018-12-05T06:27:41.584Z,102512.63
2018-12-05T06:29:49.014Z,102515.85
2018-12-05T06:31:58.624Z,102507.56
2018-12-05T06:34:05.972Z,102513.78
2018-12-05T06:36:10.388Z,102509.88
2018-12-05T06:38:18.059Z,102509.27
2018-12-05T06:40:25.447Z,102518.59
2018-12-05T06:42:32.881Z,102515.16
2018-12-05T06:44:40.323Z,102519.55
2018-12-05T06:46:42.862Z,102523.39
2018-12-05T06:48:50.251Z,102522.08
2018-12-05T06:50:57.580Z,102521.91
2018-12-05T06:53:05.822Z,102522.80
2018-12-05T06:55:13.284Z,102524.77
2018-12-05T06:57:17.851Z,102524.14
2018-12-05T06:59:23.203Z,102529.61
2018-12-05T07:01:37.389Z,102533.06
2018-12-05T07:03:44.922Z,102534.53
2018-12-05T07:05:52.713Z,102539.03
2018-12-05T07:07:59.994Z,102540.90
2018-12-05T07:10:04.712Z,102542.28
2018-12-05T07:12:10.043Z,102552.87
2018-12-05T07:14:18.181Z,102557.70
2018-12-05T07:16:25.544Z,102556.44
2018-12-05T07:18:34.134Z,102559.50
2018-12-05T07:20:41.711Z,102532.80
2018-12-05T07:22:49.076Z,102566.19
2018-12-05T07:24:56.543Z,102569.28
2018-12-05T07:27:04.027Z,102571.43
2018-12-05T07:31:13.155Z,102579.52
2018-12-05T07:33:18.294Z,102579.55
2018-12-05T07:35:23.556Z,102580.64
2018-12-05T07:37:34.895Z,102576.94
2018-12-05T07:39:39.624Z,102580.40
2018-12-05T07:41:44.163Z,102587.14
2018-12-05T07:43:48.597Z,102586.84
2018-12-05T07:45:55.919Z,102582.93
2018-12-05T07:48:03.400Z,102580.34
2018-12-05T07:50:10.843Z,102586.03
2018-12-05T07:52:19.020Z,102584.92
2018-12-05T07:54:26.516Z,102585.59
2018-12-05T07:56:31.182Z,102584.30
2018-12-05T07:58:35.535Z,102581.28
2018-12-05T08:00:45.096Z,102580.25
2018-12-05T08:02:49.675Z,102583.89
2018-12-05T08:04:57.874Z,102589.16
2018-12-05T08:07:02.448Z,102581.28
2018-12-05T08:09:10.590Z,102577.09
2018-12-05T08:11:19.092Z,102580.67
2018-12-05T08:13:26.660Z,102580.45
2018-12-05T08:15:32.064Z,102585.31
2018-12-05T08:17:40.178Z,102586.13
2018-12-05T08:19:45.164Z,102588.41
2018-12-05T08:21:53.268Z,102585.13
2018-12-05T08:23:57.955Z,102587.88
2018-12-05T08:26:06.108Z,102587.23
2018-12-05T08:28:20.480Z,102589.73
2018-12-05T08:30:27.971Z,102590.16
2018-12-05T08:36:43.061Z,102591.09
2018-12-05T08:38:54.487Z,102591.75
2018-12-05T08:41:06.018Z,102592.66
2018-12-05T08:43:10.532Z,102589.66
2018-12-05T08:45:15.031Z,102595.87
2018-12-05T08:47:23.258Z,102599.68
2018-12-05T08:49:27.915Z,102603.73
2018-12-05T08:51:35.316Z,102602.00
2018-12-05T08:53:40.054Z,102597.80
2018-12-05T08:55:48.181Z,102598.78
2018-12-05T08:57:52.731Z,102597.50
2018-12-05T08:59:58.131Z,102593.19
2018-12-05T09:02:06.360Z,102595.92
2018-12-05T09:04:11.104Z,102598.94
2018-12-05T09:06:16.407Z,102594.10
2018-12-05T09:08:22.080Z,102588.18
2018-12-05T09:10:30.215Z,102595.36
2018-12-05T09:12:42.563Z,102597.65
2018-12-05T09:14:47.467Z,102593.00
2018-12-05T09:16:55.421Z,102588.95
2018-12-05T09:19:02.947Z,102589.66
2018-12-05T09:21:10.640Z,102588.30
2018-12-05T09:23:16.011Z,102582.37
2018-12-05T09:25:20.547Z,102585.21
2018-12-05T09:27:27.815Z,102584.42
2018-12-05T09:29:36.093Z,102582.64
2018-12-05T09:31:43.464Z,102584.98
2018-12-05T09:33:50.242Z,102577.31
2018-12-05T09:38:01.794Z,102579.73
2018-12-05T09:40:06.626Z,102576.07
2018-12-05T09:42:11.723Z,102575.14
2018-12-05T09:44:19.956Z,102572.22
2018-12-05T09:46:24.576Z,102574.34
2018-12-05T09:48:32.212Z,102569.45
2018-12-05T09:50:39.701Z,102577.42
2018-12-05T09:52:47.455Z,102571.67
2018-12-05T09:54:56.224Z,102581.12
2018-12-05T09:57:07.911Z,102581.00
2018-12-05T09:59:12.944Z,102574.44
2018-12-05T10:01:20.274Z,102579.53
2018-12-05T10:03:28.017Z,102577.72
2018-12-05T10:05:36.200Z,102579.14
2018-12-05T10:07:40.871Z,102579.70
2018-12-05T10:09:49.188Z,102575.67
2018-12-05T10:11:56.701Z,102573.59
2018-12-05T10:14:05.091Z,102564.00
2018-12-05T10:16:20.323Z,102528.42
2018-12-05T10:18:27.884Z,102556.21
2018-12-05T10:20:37.359Z,102558.35
2018-12-05T10:22:44.951Z,102555.56
2018-12-05T10:24:52.449Z,102558.20
2018-12-05T10:27:06.695Z,102553.30
2018-12-05T10:29:14.356Z,102561.63
2018-12-05T10:31:22.002Z,102556.59
2018-12-05T10:33:26.755Z,102559.83
2018-12-05T10:35:38.887Z,102559.04
2018-12-05T10:37:46.396Z,102555.28
2018-12-05T10:44:03.627Z,102549.83
2018-12-05T10:50:17.777Z,102543.76
2018-12-05T10:58:40.487Z,102533.95
2018-12-05T11:07:55.770Z,102516.22
2018-12-05T11:10:10.087Z,102518.24
2018-12-05T11:12:20.843Z,102516.24
2018-12-05T11:17:19.692Z,102516.37
2018-12-05T11:19:31.039Z,102515.70
2018-12-05T11:21:49.679Z,102485.17
2018-12-05T11:23:54.627Z,102519.27
2018-12-05T11:26:02.079Z,102520.86
2018-12-05T11:28:10.866Z,102516.61
2018-12-05T11:30:18.433Z,102520.77
2018-12-05T11:32:30.105Z,102513.67
2018-12-05T11:34:34.540Z,102518.59
2018-12-05T11:36:42.851Z,102517.72
2018-12-05T11:38:57.416Z,102508.75
2018-12-05T11:41:09.038Z,102508.66
2018-12-05T11:43:16.653Z,102508.77
2018-12-05T11:45:24.517Z,102506.39
2018-12-05T11:47:33.172Z,102500.32
2018-12-05T11:49:37.960Z,102501.67
2018-12-05T11:51:42.776Z,102497.05
2018-12-05T11:53:54.214Z,102496.14
2018-12-05T11:56:01.710Z,102498.81
2018-12-05T11:58:09.094Z,102499.70
2018-12-05T12:00:17.051Z,102493.16
2018-12-05T12:02:25.343Z,102495.62
2018-12-05T12:04:34.818Z,102493.53
2018-12-05T12:06:44.519Z,102489.20
2018-12-05T12:08:52.107Z,102486.38
2018-12-05T12:11:01.790Z,102487.70
2018-12-05T12:13:09.483Z,102487.27
2018-12-05T12:15:17.891Z,102482.12
2018-12-05T12:17:26.217Z,102472.51
2018-12-05T12:19:31.128Z,102467.31
2018-12-05T12:21:41.795Z,102475.94
2018-12-05T12:23:49.665Z,102472.07
2018-12-05T12:25:57.450Z,102479.88
2018-12-05T12:28:11.986Z,102467.75
2018-12-05T12:30:20.218Z,102480.09
2018-12-05T12:32:29.122Z,102478.89
2018-12-05T12:34:36.815Z,102472.42
2018-12-05T12:36:44.259Z,102481.80
2018-12-05T12:38:51.919Z,102480.98
2018-12-05T12:41:00.485Z,102474.13
2018-12-05T12:43:08.051Z,102471.22
2018-12-05T12:45:16.350Z,102463.37
2018-12-05T12:47:24.131Z,102457.84
2018-12-05T12:49:28.835Z,102450.59
2018-12-05T12:51:37.086Z,102451.31
2018-12-05T12:53:51.539Z,102447.95
2018-12-05T12:56:01.155Z,102446.14
2018-12-05T12:58:09.035Z,102441.67
2018-12-05T13:00:17.289Z,102442.93
2018-12-05T13:02:25.027Z,102444.77
2018-12-05T13:04:32.727Z,102448.95
2018-12-05T13:06:46.964Z,102446.41
2018-12-05T13:08:54.387Z,102455.27
2018-12-05T13:10:59.035Z,102454.36
2018-12-05T13:13:06.523Z,102444.78
2018-12-05T13:15:14.810Z,102457.55
2018-12-05T13:19:27.949Z,102455.44
2018-12-05T13:23:42.398Z,102437.05
2018-12-05T13:25:50.376Z,102430.09
2018-12-05T13:27:54.855Z,102426.91
2018-12-05T13:30:03.837Z,102422.92
2018-12-05T13:32:13.536Z,102425.50
2018-12-05T13:34:21.367Z,102417.30
2018-12-05T13:36:29.098Z,102421.38
2018-12-05T13:38:36.467Z,102418.52
2018-12-05T13:40:43.928Z,102418.51
2018-12-05T13:42:55.705Z,102416.84
2018-12-05T13:45:08.103Z,102418.25
2018-12-05T13:47:17.343Z,102413.70
2018-12-05T13:49:24.942Z,102410.28
2018-12-05T13:51:32.235Z,102407.50
2018-12-05T13:53:40.076Z,102413.40
2018-12-05T13:55:47.508Z,102414.34
2018-12-05T13:57:55.615Z,102412.52
2018-12-05T14:00:07.555Z,102411.14
2018-12-05T14:02:11.036Z,102399.01
2018-12-05T14:04:20.687Z,102394.53
2018-12-05T14:06:32.536Z,102397.66
2018-12-05T14:08:40.355Z,102398.17
2018-12-05T14:10:48.308Z,102386.02
2018-12-05T14:12:58.101Z,102392.72
2018-12-05T14:15:06.317Z,102387.84
2018-12-05T14:17:14.478Z,102387.13
2018-12-05T14:19:22.307Z,102389.70
2018-12-05T14:21:30.160Z,102390.36
2018-12-05T14:23:35.252Z,102387.37
2018-12-05T14:27:48.200Z,102377.23
2018-12-05T14:29:49.612Z,102373.49
2018-12-05T14:31:57.815Z,102378.56
2018-12-05T14:34:05.602Z,102373.70
2018-12-05T14:36:13.183Z,102378.95
2018-12-05T14:38:22.951Z,102378.81
2018-12-05T14:40:30.752Z,102381.77
2018-12-05T14:42:38.343Z,102377.34
2018-12-05T14:44:46.023Z,102370.99
2018-12-05T14:46:53.700Z,102374.59
2018-12-05T14:49:01.425Z,102370.67
2018-12-05T14:51:09.051Z,102374.11
2018-12-05T14:53:17.072Z,102374.91
2018-12-05T14:55:22.007Z,102371.32
2018-12-05T14:57:30.684Z,102367.70
2018-12-05T14:59:38.372Z,102369.81
2018-12-05T15:01:46.100Z,102338.95
2018-12-05T15:03:54.197Z,102366.66
2018-12-05T15:06:02.155Z,102372.66
2018-12-05T15:08:10.724Z,102368.08
2018-12-05T15:10:18.799Z,102372.32
2018-12-05T15:12:26.355Z,102368.41
2018-12-05T15:14:34.183Z,102370.36
2018-12-05T15:16:43.649Z,102333.41
2018-12-05T15:18:51.675Z,102372.02
2018-12-05T15:20:59.069Z,102363.86
2018-12-05T15:23:06.792Z,102374.89
2018-12-05T15:25:14.180Z,102337.11
2018-12-05T15:27:22.091Z,102363.70
2018-12-05T15:29:30.972Z,102367.25
2018-12-05T15:31:52.167Z,102367.88
2018-12-05T15:34:00.079Z,102358.56
2018-12-05T15:36:07.549Z,102352.41
2018-12-05T15:38:22.321Z,102349.98
2018-12-05T15:40:30.840Z,102339.71
2018-12-05T15:42:39.851Z,102333.48
2018-12-05T15:44:54.163Z,102339.39
2018-12-05T15:47:24.531Z,102337.40
2018-12-05T15:49:32.534Z,102333.66
2018-12-05T15:51:39.892Z,102333.98
2018-12-05T15:53:49.355Z,102331.69
2018-12-05T15:55:56.730Z,102324.11
2018-12-05T15:58:04.950Z,102322.18
2018-12-05T16:00:12.582Z,102319.41
2018-12-05T16:02:20.163Z,102321.56
2018-12-05T16:04:27.759Z,102319.10
2018-12-05T16:06:35.108Z,102316.42
2018-12-05T16:08:42.989Z,102311.92
2018-12-05T16:10:50.386Z,102310.48
2018-12-05T16:13:05.255Z,102313.44
2018-12-05T16:15:13.256Z,102311.06
2018-12-05T16:17:20.714Z,102309.31
2018-12-05T16:19:29.004Z,102305.32
2018-12-05T16:21:36.311Z,102300.52
2018-12-05T16:23:43.854Z,102296.98
2018-12-05T16:25:51.617Z,102294.08
2018-12-05T16:28:03.170Z,102299.59
2018-12-05T16:30:10.723Z,102297.70
2018-12-05T16:32:18.211Z,102298.10
2018-12-05T16:34:25.727Z,102298.49
2018-12-05T16:36:35.303Z,102296.34
2018-12-05T16:38:39.841Z,102292.14
2018-12-05T16:40:48.019Z,102291.69
2018-12-05T16:42:52.639Z,102293.29
2018-12-05T16:45:05.103Z,102289.22
2018-12-05T16:47:12.574Z,102285.94
2018-12-05T16:49:20.258Z,102288.20
2018-12-05T16:51:24.899Z,102287.84
2018-12-05T16:53:30.252Z,102279.55
2018-12-05T16:55:37.783Z,102280.33
2018-12-05T16:57:45.245Z,102280.92
2018-12-05T16:59:52.915Z,102286.11
2018-12-05T17:01:58.099Z,102291.03
2018-12-05T17:04:06.189Z,102291.72
2018-12-05T17:06:13.535Z,102278.89
2018-12-05T17:08:18.405Z,102236.26
2018-12-05T17:10:25.859Z,102274.22
2018-12-05T17:12:35.537Z,102264.43
2018-12-05T17:14:43.006Z,102269.16
2018-12-05T17:16:50.655Z,102267.64
2018-12-05T17:18:56.089Z,102254.34
2018-12-05T17:21:03.519Z,102253.25
2018-12-05T17:23:11.637Z,102254.91
2018-12-05T17:25:16.639Z,102260.98
2018-12-05T17:27:31.367Z,102264.09
2018-12-05T17:29:36.711Z,102257.48
2018-12-05T17:31:44.178Z,102263.03
2018-12-05T17:33:51.663Z,102262.72
2018-12-05T17:35:59.227Z,102264.84
2018-12-05T17:38:06.618Z,102258.48
2018-12-05T17:40:14.994Z,102257.96
2018-12-05T17:44:27.135Z,102258.04
2018-12-05T17:46:33.458Z,102253.73
2018-12-05T17:48:38.346Z,102252.36
2018-12-05T17:50:46.566Z,102247.14
2018-12-05T17:53:13.692Z,102245.25
2018-12-05T17:55:21.321Z,102244.97
2018-12-05T17:57:28.899Z,102239.42
2018-12-05T17:59:36.427Z,102230.02
2018-12-05T18:01:44.383Z,102228.41
2018-12-05T18:03:52.659Z,102227.38
2018-12-05T18:06:05.046Z,102216.52
2018-12-05T18:08:13.379Z,102214.88
2018-12-05T18:10:19.396Z,102218.75
2018-12-05T18:12:26.979Z,102220.42
2018-12-05T18:14:35.211Z,102217.13
2018-12-05T18:16:42.603Z,102209.31
2018-12-05T18:18:50.171Z,102205.34
2018-12-05T18:20:57.596Z,102204.81
2018-12-05T18:23:25.971Z,102200.27
2018-12-05T18:25:34.514Z,102197.19
2018-12-05T18:27:43.160Z,102192.81
2018-12-05T18:29:50.749Z,102182.81
2018-12-05T18:31:58.618Z,102190.83
2018-12-05T18:34:03.389Z,102192.09
2018-12-05T18:36:11.671Z,102195.42
2018-12-05T18:38:24.181Z,102193.95
2018-12-05T18:40:32.527Z,102192.44
2018-12-05T18:42:36.956Z,102189.85
2018-12-05T18:44:44.555Z,102191.41
2018-12-05T18:46:53.935Z,102188.09
2018-12-05T18:49:08.204Z,102140.16
2018-12-05T18:51:20.759Z,102179.84
2018-12-05T18:53:40.098Z,102176.08
2018-12-05T18:55:47.423Z,102175.83
2018-12-05T18:57:53.294Z,102170.56
2018-12-05T19:00:05.214Z,102172.19
2018-12-05T19:02:11.976Z,102167.02
2018-12-05T19:04:19.457Z,102169.09
2018-12-05T19:06:26.977Z,102164.17
2018-12-05T19:08:39.346Z,102159.69
2018-12-05T19:10:45.108Z,102160.60
2018-12-05T19:12:58.330Z,102162.92
2018-12-05T19:15:03.898Z,102161.45
2018-12-05T19:17:20.107Z,102162.50
2018-12-05T19:19:32.543Z,102156.94
2018-12-05T19:21:39.872Z,102157.41
2018-12-05T19:23:48.200Z,102158.12
2018-12-05T19:26:00.715Z,102160.47
2018-12-05T19:28:14.075Z,102161.52
2018-12-05T19:30:20.587Z,102164.44
2018-12-05T19:32:26.964Z,102151.50
2018-12-05T19:34:40.262Z,102156.01
2018-12-05T19:36:53.726Z,102147.47
2018-12-05T19:39:05.175Z,102143.71
2018-12-05T19:41:11.533Z,102128.16
2018-12-05T19:43:31.718Z,102123.30
2018-12-05T19:45:40.440Z,102122.20
2018-12-05T19:47:56.964Z,102118.10
2018-12-05T19:50:05.027Z,102117.62
2018-12-05T19:52:13.930Z,102122.07
2018-12-05T19:54:22.267Z,102121.83
2018-12-05T19:56:34.855Z,102126.15
2018-12-05T19:58:39.531Z,102124.31
2018-12-05T20:00:47.071Z,102126.03
2018-12-05T20:02:51.824Z,102118.19
2018-12-05T20:05:01.218Z,102117.67
2018-12-05T20:07:20.825Z,102114.09
2018-12-05T20:09:28.483Z,102114.41
2018-12-05T20:11:36.279Z,102111.03
2018-12-05T20:13:44.104Z,102108.98
2018-12-05T20:15:52.283Z,102108.67
2018-12-05T20:17:57.627Z,102110.66
2018-12-05T20:20:07.487Z,102111.11
2018-12-05T20:22:15.058Z,102112.52
2018-12-05T20:24:25.630Z,102109.84
2018-12-05T20:26:30.436Z,102106.55
2018-12-05T20:28:35.250Z,102111.77
2018-12-05T20:30:40.066Z,102101.08
2018-12-05T20:32:44.851Z,102115.27
2018-12-05T20:37:32.311Z,102110.70
2018-12-05T20:39:51.681Z,102106.34
2018-12-05T20:42:05.472Z,102105.56
2018-12-05T20:44:17.855Z,102103.40
2018-12-05T20:46:25.688Z,102085.89
2018-12-05T20:48:31.203Z,102088.56
2018-12-05T20:50:37.289Z,102085.33
2018-12-05T20:52:45.287Z,102081.53
2018-12-05T20:54:52.959Z,102080.30
2018-12-05T20:56:59.795Z,102076.83
2018-12-05T20:59:08.282Z,102068.55
2018-12-05T21:01:12.251Z,102034.43
2018-12-05T21:03:15.540Z,102063.12
2018-12-05T21:05:23.103Z,102070.03
2018-12-05T21:07:34.763Z,102068.45
2018-12-05T21:09:43.425Z,102067.73
2018-12-05T21:11:45.832Z,102062.19
2018-12-05T21:13:50.706Z,102060.42
2018-12-05T21:15:58.108Z,102053.28
2018-12-05T21:18:03.876Z,102052.56
2018-12-05T21:20:16.512Z,102044.86
2018-12-05T21:22:23.931Z,102039.97
2018-12-05T21:24:28.016Z,102038.29
2018-12-05T21:26:38.727Z,102034.22
2018-12-05T21:28:57.277Z,102023.07
2018-12-05T21:31:14.454Z,102020.83
2018-12-05T21:33:23.059Z,102019.20
2018-12-05T21:35:28.554Z,102005.91
2018-12-05T21:37:31.963Z,102011.39
2018-12-05T21:39:38.119Z,102005.18
2018-12-05T21:41:45.567Z,102005.53
2018-12-05T21:43:52.024Z,102001.94
2018-12-05T21:45:56.586Z,102002.72
2018-12-05T21:48:01.277Z,102000.75
2018-12-05T21:50:09.463Z,101997.58
2018-12-05T21:52:14.240Z,101996.20
2018-12-05T21:54:18.959Z,101989.65
2018-12-05T21:56:33.235Z,101997.33
2018-12-05T21:58:38.988Z,101992.92
2018-12-05T22:00:51.571Z,101987.59
2018-12-05T22:02:54.899Z,101982.08
2018-12-05T22:05:02.793Z,101981.18
2018-12-05T22:07:11.256Z,101976.64
2018-12-05T22:09:19.840Z,101977.16
2018-12-05T22:11:24.507Z,101974.28
2018-12-05T22:13:32.415Z,101972.40
2018-12-05T22:15:37.169Z,101968.97
2018-12-05T22:17:45.823Z,101970.35
2018-12-05T22:19:53.283Z,101965.65
2018-12-05T22:21:59.022Z,101958.48
2018-12-05T22:24:11.791Z,101956.38
2018-12-05T22:26:23.256Z,101952.76
2018-12-05T22:28:27.840Z,101953.38
2018-12-05T22:30:35.597Z,101941.73
2018-12-05T22:32:43.280Z,101940.47
2018-12-05T22:34:50.727Z,101934.83
2018-12-05T22:37:01.927Z,101931.45
2018-12-05T22:39:09.527Z,101928.77
2018-12-05T22:41:14.106Z,101923.94
2018-12-05T22:43:21.628Z,101924.83
2018-12-05T22:45:26.203Z,101924.66
2018-12-05T22:47:33.773Z,101924.61
2018-12-05T22:50:04.085Z,101919.88
2018-12-05T22:52:12.039Z,101914.41
2018-12-05T22:54:19.317Z,101914.35
2018-12-05T22:56:27.014Z,101908.48
2018-12-05T22:58:32.515Z,101906.66
2018-12-05T23:00:47.688Z,101903.64
2018-12-05T23:02:52.767Z,101898.66
2018-12-05T23:05:00.175Z,101892.77
2018-12-05T23:07:05.323Z,101895.66
2018-12-05T23:09:10.642Z,101886.45
2018-12-05T23:11:20.111Z,101883.55
2018-12-05T23:13:24.846Z,101876.07
2018-12-05T23:15:29.411Z,101869.03
2018-12-05T23:17:48.672Z,101867.27
2018-12-05T23:19:56.447Z,101865.12
2018-12-05T23:22:01.161Z,101863.35
2018-12-05T23:24:06.610Z,101860.98
2018-12-05T23:26:11.887Z,101857.20
2018-12-05T23:28:16.322Z,101860.65
2018-12-05T23:30:23.756Z,101856.27
2018-12-05T23:32:31.411Z,101848.16
2018-12-05T23:34:39.282Z,101847.82
2018-12-05T23:36:46.747Z,101844.39
2018-12-05T23:39:05.222Z,101831.64
2018-12-05T23:41:12.811Z,101829.48
2018-12-05T23:43:17.437Z,101827.23
2018-12-05T23:45:25.089Z,101828.75
2018-12-05T23:47:33.512Z,101822.41
2018-12-05T23:49:40.865Z,101820.66
2018-12-05T23:51:45.539Z,101821.98
2018-12-05T23:53:53.826Z,101813.36
2018-12-05T23:58:02.254Z,101814.36
